sensor_id;sensor_type;location;lat;lon;timestamp;P1;durP1;ratioP1;P2;durP2;ratioP2
4232;SDS011;2130;48.472;11.934;2023-12-29T00:01:16;6.63;;;1.20;;
4232;SDS011;2130;48.472;11.934;2023-12-29T00:03:44;7.30;;;1.30;;
4232;SDS011;2130;48.472;11.934;2023-12-29T00:06:12;7.10;;;1.20;;
4232;SDS011;2130;48.472;11.934;2023-12-29T00:08:41;8.40;;;1.40;;
4232;SDS011;2130;48.472;11.934;2023-12-29T00:11:15;6.53;;;1.20;;
4232;SDS011;2130;48.472;11.934;2023-12-29T00:13:46;6.53;;;1.30;;
4232;SDS011;2130;48.472;11.934;2023-12-29T00:16:14;6.60;;;1.10;;
4232;SDS011;2130;48.472;11.934;2023-12-29T00:18:42;7.70;;;1.37;;
4232;SDS011;2130;48.472;11.934;2023-12-29T00:21:11;7.53;;;1.30;;
4232;SDS011;2130;48.472;11.934;2023-12-29T00:23:38;6.50;;;1.00;;
4232;SDS011;2130;48.472;11.934;2023-12-29T00:26:06;6.50;;;1.33;;
4232;SDS011;2130;48.472;11.934;2023-12-29T00:28:36;6.30;;;1.00;;
4232;SDS011;2130;48.472;11.934;2023-12-29T00:31:07;7.93;;;1.20;;
4232;SDS011;2130;48.472;11.934;2023-12-29T00:33:35;8.63;;;1.70;;
4232;SDS011;2130;48.472;11.934;2023-12-29T00:36:03;6.50;;;1.07;;
4232;SDS011;2130;48.472;11.934;2023-12-29T00:38:32;6.63;;;1.10;;
4232;SDS011;2130;48.472;11.934;2023-12-29T00:41:00;6.90;;;1.40;;
4232;SDS011;2130;48.472;11.934;2023-12-29T00:43:28;7.43;;;1.43;;
4232;SDS011;2130;48.472;11.934;2023-12-29T00:45:58;8.37;;;1.60;;
4232;SDS011;2130;48.472;11.934;2023-12-29T00:48:26;7.40;;;1.30;;
4232;SDS011;2130;48.472;11.934;2023-12-29T00:50:54;7.37;;;1.43;;
4232;SDS011;2130;48.472;11.934;2023-12-29T00:53:22;6.60;;;1.30;;
4232;SDS011;2130;48.472;11.934;2023-12-29T00:55:50;9.90;;;1.20;;
4232;SDS011;2130;48.472;11.934;2023-12-29T00:58:18;7.30;;;1.47;;
4232;SDS011;2130;48.472;11.934;2023-12-29T01:00:46;7.37;;;1.40;;
4232;SDS011;2130;48.472;11.934;2023-12-29T01:03:16;8.23;;;1.40;;
4232;SDS011;2130;48.472;11.934;2023-12-29T01:05:46;6.50;;;1.13;;
4232;SDS011;2130;48.472;11.934;2023-12-29T01:08:14;7.10;;;1.17;;
4232;SDS011;2130;48.472;11.934;2023-12-29T01:10:42;6.43;;;1.10;;
4232;SDS011;2130;48.472;11.934;2023-12-29T01:13:10;8.00;;;1.30;;
4232;SDS011;2130;48.472;11.934;2023-12-29T01:15:39;6.40;;;1.10;;
4232;SDS011;2130;48.472;11.934;2023-12-29T01:18:10;7.10;;;1.13;;
4232;SDS011;2130;48.472;11.934;2023-12-29T01:20:41;7.00;;;1.10;;
4232;SDS011;2130;48.472;11.934;2023-12-29T01:23:09;7.30;;;1.47;;
4232;SDS011;2130;48.472;11.934;2023-12-29T01:25:37;6.13;;;1.20;;
4232;SDS011;2130;48.472;11.934;2023-12-29T01:28:05;6.73;;;1.00;;
4232;SDS011;2130;48.472;11.934;2023-12-29T01:30:34;6.60;;;1.30;;
4232;SDS011;2130;48.472;11.934;2023-12-29T01:33:03;6.53;;;1.13;;
4232;SDS011;2130;48.472;11.934;2023-12-29T01:35:32;6.30;;;1.10;;
4232;SDS011;2130;48.472;11.934;2023-12-29T01:38:01;6.23;;;1.13;;
4232;SDS011;2130;48.472;11.934;2023-12-29T01:40:30;6.40;;;1.00;;
4232;SDS011;2130;48.472;11.934;2023-12-29T01:42:58;6.60;;;1.20;;
4232;SDS011;2130;48.472;11.934;2023-12-29T01:45:26;6.40;;;1.07;;
4232;SDS011;2130;48.472;11.934;2023-12-29T01:47:54;6.97;;;1.40;;
4232;SDS011;2130;48.472;11.934;2023-12-29T01:50:22;7.40;;;1.20;;
4232;SDS011;2130;48.472;11.934;2023-12-29T01:52:50;6.60;;;1.00;;
4232;SDS011;2130;48.472;11.934;2023-12-29T01:55:21;6.80;;;1.20;;
4232;SDS011;2130;48.472;11.934;2023-12-29T01:57:50;7.73;;;1.17;;
4232;SDS011;2130;48.472;11.934;2023-12-29T02:00:18;7.33;;;1.40;;
4232;SDS011;2130;48.472;11.934;2023-12-29T02:02:47;8.10;;;1.57;;
4232;SDS011;2130;48.472;11.934;2023-12-29T02:05:16;6.67;;;1.20;;
4232;SDS011;2130;48.472;11.934;2023-12-29T02:07:45;5.90;;;1.00;;
4232;SDS011;2130;48.472;11.934;2023-12-29T02:10:13;8.00;;;1.27;;
4232;SDS011;2130;48.472;11.934;2023-12-29T02:12:44;6.63;;;1.13;;
4232;SDS011;2130;48.472;11.934;2023-12-29T02:15:12;7.60;;;1.50;;
4232;SDS011;2130;48.472;11.934;2023-12-29T02:17:43;6.30;;;0.90;;
4232;SDS011;2130;48.472;11.934;2023-12-29T02:20:14;6.80;;;1.20;;
4232;SDS011;2130;48.472;11.934;2023-12-29T02:22:42;7.40;;;1.20;;
4232;SDS011;2130;48.472;11.934;2023-12-29T02:25:12;6.67;;;1.30;;
4232;SDS011;2130;48.472;11.934;2023-12-29T02:27:43;7.40;;;1.10;;
4232;SDS011;2130;48.472;11.934;2023-12-29T02:30:16;6.43;;;1.10;;
4232;SDS011;2130;48.472;11.934;2023-12-29T02:32:49;7.50;;;1.17;;
4232;SDS011;2130;48.472;11.934;2023-12-29T02:35:21;6.90;;;1.07;;
4232;SDS011;2130;48.472;11.934;2023-12-29T02:37:52;6.70;;;1.00;;
4232;SDS011;2130;48.472;11.934;2023-12-29T02:40:22;6.47;;;1.20;;
4232;SDS011;2130;48.472;11.934;2023-12-29T02:42:51;7.37;;;1.37;;
4232;SDS011;2130;48.472;11.934;2023-12-29T02:45:19;6.40;;;1.07;;
4232;SDS011;2130;48.472;11.934;2023-12-29T02:47:47;6.83;;;1.30;;
4232;SDS011;2130;48.472;11.934;2023-12-29T02:50:16;7.00;;;1.30;;
4232;SDS011;2130;48.472;11.934;2023-12-29T02:52:45;6.43;;;1.20;;
4232;SDS011;2130;48.472;11.934;2023-12-29T02:55:13;6.97;;;1.20;;
4232;SDS011;2130;48.472;11.934;2023-12-29T02:57:44;11.13;;;1.20;;
4232;SDS011;2130;48.472;11.934;2023-12-29T03:00:12;7.43;;;1.40;;
4232;SDS011;2130;48.472;11.934;2023-12-29T03:02:41;6.63;;;1.20;;
4232;SDS011;2130;48.472;11.934;2023-12-29T03:05:10;7.60;;;1.33;;
4232;SDS011;2130;48.472;11.934;2023-12-29T03:07:38;6.33;;;1.00;;
4232;SDS011;2130;48.472;11.934;2023-12-29T03:10:07;6.20;;;0.97;;
4232;SDS011;2130;48.472;11.934;2023-12-29T03:12:36;6.60;;;1.00;;
4232;SDS011;2130;48.472;11.934;2023-12-29T03:15:06;7.20;;;1.30;;
4232;SDS011;2130;48.472;11.934;2023-12-29T03:17:35;6.73;;;1.20;;
4232;SDS011;2130;48.472;11.934;2023-12-29T03:20:03;6.33;;;0.90;;
4232;SDS011;2130;48.472;11.934;2023-12-29T03:22:32;7.10;;;0.90;;
4232;SDS011;2130;48.472;11.934;2023-12-29T03:25:00;7.20;;;1.20;;
4232;SDS011;2130;48.472;11.934;2023-12-29T03:27:29;6.60;;;0.93;;
4232;SDS011;2130;48.472;11.934;2023-12-29T03:29:57;10.83;;;0.90;;
4232;SDS011;2130;48.472;11.934;2023-12-29T03:32:30;7.20;;;1.43;;
4232;SDS011;2130;48.472;11.934;2023-12-29T03:34:59;6.53;;;1.00;;
4232;SDS011;2130;48.472;11.934;2023-12-29T03:37:27;7.20;;;1.30;;
4232;SDS011;2130;48.472;11.934;2023-12-29T03:39:55;7.60;;;1.33;;
4232;SDS011;2130;48.472;11.934;2023-12-29T03:42:23;7.60;;;1.30;;
4232;SDS011;2130;48.472;11.934;2023-12-29T03:44:53;8.43;;;1.47;;
4232;SDS011;2130;48.472;11.934;2023-12-29T03:47:21;6.70;;;1.13;;
4232;SDS011;2130;48.472;11.934;2023-12-29T03:49:50;7.10;;;1.20;;
4232;SDS011;2130;48.472;11.934;2023-12-29T03:52:18;7.10;;;1.37;;
4232;SDS011;2130;48.472;11.934;2023-12-29T03:54:47;7.63;;;1.40;;
4232;SDS011;2130;48.472;11.934;2023-12-29T03:57:15;8.27;;;1.40;;
4232;SDS011;2130;48.472;11.934;2023-12-29T03:59:43;7.33;;;1.00;;
4232;SDS011;2130;48.472;11.934;2023-12-29T04:02:11;7.00;;;1.10;;
4232;SDS011;2130;48.472;11.934;2023-12-29T04:04:39;6.73;;;1.03;;
4232;SDS011;2130;48.472;11.934;2023-12-29T04:07:09;8.00;;;1.20;;
4232;SDS011;2130;48.472;11.934;2023-12-29T04:09:37;7.30;;;1.30;;
4232;SDS011;2130;48.472;11.934;2023-12-29T04:12:05;7.10;;;1.07;;
4232;SDS011;2130;48.472;11.934;2023-12-29T04:14:34;7.57;;;1.30;;
4232;SDS011;2130;48.472;11.934;2023-12-29T04:17:02;7.43;;;1.23;;
4232;SDS011;2130;48.472;11.934;2023-12-29T04:19:40;7.87;;;1.47;;
4232;SDS011;2130;48.472;11.934;2023-12-29T04:22:10;7.73;;;1.30;;
4232;SDS011;2130;48.472;11.934;2023-12-29T04:24:38;7.50;;;1.33;;
4232;SDS011;2130;48.472;11.934;2023-12-29T04:27:06;7.13;;;1.30;;
4232;SDS011;2130;48.472;11.934;2023-12-29T04:29:34;9.63;;;1.73;;
4232;SDS011;2130;48.472;11.934;2023-12-29T04:32:02;9.57;;;1.37;;
4232;SDS011;2130;48.472;11.934;2023-12-29T04:34:30;9.27;;;1.33;;
4232;SDS011;2130;48.472;11.934;2023-12-29T04:36:59;6.97;;;1.10;;
4232;SDS011;2130;48.472;11.934;2023-12-29T04:39:28;8.03;;;1.50;;
4232;SDS011;2130;48.472;11.934;2023-12-29T04:41:56;8.27;;;1.30;;
4232;SDS011;2130;48.472;11.934;2023-12-29T04:44:24;7.93;;;1.60;;
4232;SDS011;2130;48.472;11.934;2023-12-29T04:46:53;7.30;;;1.33;;
4232;SDS011;2130;48.472;11.934;2023-12-29T04:49:21;7.23;;;1.00;;
4232;SDS011;2130;48.472;11.934;2023-12-29T04:51:49;7.40;;;1.20;;
4232;SDS011;2130;48.472;11.934;2023-12-29T04:54:17;8.90;;;1.33;;
4232;SDS011;2130;48.472;11.934;2023-12-29T04:56:46;8.50;;;1.40;;
4232;SDS011;2130;48.472;11.934;2023-12-29T04:59:14;8.13;;;1.30;;
4232;SDS011;2130;48.472;11.934;2023-12-29T05:01:42;7.63;;;1.13;;
4232;SDS011;2130;48.472;11.934;2023-12-29T05:04:10;7.63;;;1.33;;
4232;SDS011;2130;48.472;11.934;2023-12-29T05:06:39;8.60;;;1.40;;
4232;SDS011;2130;48.472;11.934;2023-12-29T05:09:07;7.20;;;1.27;;
4232;SDS011;2130;48.472;11.934;2023-12-29T05:11:35;10.20;;;1.93;;
4232;SDS011;2130;48.472;11.934;2023-12-29T05:14:05;10.63;;;1.70;;
4232;SDS011;2130;48.472;11.934;2023-12-29T05:16:33;8.03;;;1.40;;
4232;SDS011;2130;48.472;11.934;2023-12-29T05:19:01;8.10;;;1.37;;
4232;SDS011;2130;48.472;11.934;2023-12-29T05:21:29;7.70;;;1.20;;
4232;SDS011;2130;48.472;11.934;2023-12-29T05:23:57;8.30;;;1.50;;
4232;SDS011;2130;48.472;11.934;2023-12-29T05:26:25;7.70;;;1.30;;
4232;SDS011;2130;48.472;11.934;2023-12-29T05:28:54;8.30;;;1.60;;
4232;SDS011;2130;48.472;11.934;2023-12-29T05:31:23;8.93;;;1.80;;
4232;SDS011;2130;48.472;11.934;2023-12-29T05:33:51;7.43;;;1.30;;
4232;SDS011;2130;48.472;11.934;2023-12-29T05:36:20;8.23;;;1.40;;
4232;SDS011;2130;48.472;11.934;2023-12-29T05:38:48;8.10;;;1.30;;
4232;SDS011;2130;48.472;11.934;2023-12-29T05:41:16;7.10;;;1.10;;
4232;SDS011;2130;48.472;11.934;2023-12-29T05:43:44;8.10;;;1.40;;
4232;SDS011;2130;48.472;11.934;2023-12-29T05:46:12;7.93;;;1.40;;
4232;SDS011;2130;48.472;11.934;2023-12-29T05:48:41;8.00;;;1.13;;
4232;SDS011;2130;48.472;11.934;2023-12-29T05:51:10;8.20;;;1.30;;
4232;SDS011;2130;48.472;11.934;2023-12-29T05:53:39;8.00;;;1.47;;
4232;SDS011;2130;48.472;11.934;2023-12-29T05:56:07;7.90;;;1.43;;
4232;SDS011;2130;48.472;11.934;2023-12-29T05:58:35;8.40;;;1.10;;
4232;SDS011;2130;48.472;11.934;2023-12-29T06:01:03;7.40;;;1.20;;
4232;SDS011;2130;48.472;11.934;2023-12-29T06:03:32;8.43;;;1.20;;
4232;SDS011;2130;48.472;11.934;2023-12-29T06:06:01;7.50;;;1.10;;
4232;SDS011;2130;48.472;11.934;2023-12-29T06:08:29;8.37;;;1.53;;
4232;SDS011;2130;48.472;11.934;2023-12-29T06:10:57;7.53;;;1.40;;
4232;SDS011;2130;48.472;11.934;2023-12-29T06:13:25;8.40;;;1.40;;
4232;SDS011;2130;48.472;11.934;2023-12-29T06:15:55;13.13;;;1.77;;
4232;SDS011;2130;48.472;11.934;2023-12-29T06:18:23;8.03;;;1.47;;
4232;SDS011;2130;48.472;11.934;2023-12-29T06:20:51;9.13;;;2.10;;
4232;SDS011;2130;48.472;11.934;2023-12-29T06:23:21;15.03;;;1.43;;
4232;SDS011;2130;48.472;11.934;2023-12-29T06:25:49;8.60;;;1.30;;
4232;SDS011;2130;48.472;11.934;2023-12-29T06:28:17;8.23;;;1.67;;
4232;SDS011;2130;48.472;11.934;2023-12-29T06:30:45;8.83;;;1.80;;
4232;SDS011;2130;48.472;11.934;2023-12-29T06:33:13;7.80;;;1.40;;
4232;SDS011;2130;48.472;11.934;2023-12-29T06:35:41;9.70;;;1.57;;
4232;SDS011;2130;48.472;11.934;2023-12-29T06:38:09;8.83;;;1.33;;
4232;SDS011;2130;48.472;11.934;2023-12-29T06:40:39;8.33;;;1.43;;
4232;SDS011;2130;48.472;11.934;2023-12-29T06:43:07;9.43;;;2.23;;
4232;SDS011;2130;48.472;11.934;2023-12-29T06:45:35;7.80;;;1.73;;
4232;SDS011;2130;48.472;11.934;2023-12-29T06:48:03;8.47;;;1.50;;
4232;SDS011;2130;48.472;11.934;2023-12-29T06:50:32;9.13;;;1.80;;
4232;SDS011;2130;48.472;11.934;2023-12-29T06:53:03;10.43;;;2.40;;
4232;SDS011;2130;48.472;11.934;2023-12-29T06:55:32;9.23;;;1.50;;
4232;SDS011;2130;48.472;11.934;2023-12-29T06:58:01;7.43;;;1.43;;
4232;SDS011;2130;48.472;11.934;2023-12-29T07:00:30;7.47;;;1.73;;
4232;SDS011;2130;48.472;11.934;2023-12-29T07:02:59;7.30;;;1.50;;
4232;SDS011;2130;48.472;11.934;2023-12-29T07:05:28;8.30;;;1.60;;
4232;SDS011;2130;48.472;11.934;2023-12-29T07:07:56;8.33;;;1.33;;
4232;SDS011;2130;48.472;11.934;2023-12-29T07:10:24;8.13;;;1.37;;
4232;SDS011;2130;48.472;11.934;2023-12-29T07:12:52;8.63;;;1.47;;
4232;SDS011;2130;48.472;11.934;2023-12-29T07:15:22;9.13;;;1.60;;
4232;SDS011;2130;48.472;11.934;2023-12-29T07:17:50;8.33;;;1.67;;
4232;SDS011;2130;48.472;11.934;2023-12-29T07:20:18;8.17;;;1.70;;
4232;SDS011;2130;48.472;11.934;2023-12-29T07:22:46;9.03;;;1.77;;
4232;SDS011;2130;48.472;11.934;2023-12-29T07:25:14;8.43;;;1.70;;
4232;SDS011;2130;48.472;11.934;2023-12-29T07:27:43;8.23;;;1.73;;
4232;SDS011;2130;48.472;11.934;2023-12-29T07:30:11;7.80;;;1.47;;
4232;SDS011;2130;48.472;11.934;2023-12-29T07:32:41;8.73;;;1.77;;
4232;SDS011;2130;48.472;11.934;2023-12-29T07:35:13;9.77;;;2.30;;
4232;SDS011;2130;48.472;11.934;2023-12-29T07:37:44;8.03;;;1.60;;
4232;SDS011;2130;48.472;11.934;2023-12-29T07:40:12;10.77;;;2.10;;
4232;SDS011;2130;48.472;11.934;2023-12-29T07:42:41;8.57;;;1.73;;
4232;SDS011;2130;48.472;11.934;2023-12-29T07:45:11;7.30;;;1.70;;
4232;SDS011;2130;48.472;11.934;2023-12-29T07:47:39;8.63;;;1.70;;
4232;SDS011;2130;48.472;11.934;2023-12-29T07:50:09;7.20;;;1.47;;
4232;SDS011;2130;48.472;11.934;2023-12-29T07:52:37;9.10;;;2.10;;
4232;SDS011;2130;48.472;11.934;2023-12-29T07:55:05;7.97;;;1.90;;
4232;SDS011;2130;48.472;11.934;2023-12-29T07:57:34;8.33;;;1.70;;
4232;SDS011;2130;48.472;11.934;2023-12-29T08:00:02;7.77;;;1.90;;
4232;SDS011;2130;48.472;11.934;2023-12-29T08:02:37;8.63;;;1.80;;
4232;SDS011;2130;48.472;11.934;2023-12-29T08:05:05;8.53;;;1.80;;
4232;SDS011;2130;48.472;11.934;2023-12-29T08:07:36;8.77;;;1.90;;
4232;SDS011;2130;48.472;11.934;2023-12-29T08:10:04;7.30;;;1.57;;
4232;SDS011;2130;48.472;11.934;2023-12-29T08:12:33;7.93;;;1.50;;
4232;SDS011;2130;48.472;11.934;2023-12-29T08:15:03;7.60;;;1.30;;
4232;SDS011;2130;48.472;11.934;2023-12-29T08:17:32;7.57;;;1.30;;
4232;SDS011;2130;48.472;11.934;2023-12-29T08:20:00;6.90;;;1.43;;
4232;SDS011;2130;48.472;11.934;2023-12-29T08:22:29;7.20;;;1.60;;
4232;SDS011;2130;48.472;11.934;2023-12-29T08:25:00;7.37;;;1.43;;
4232;SDS011;2130;48.472;11.934;2023-12-29T08:27:28;6.93;;;1.30;;
4232;SDS011;2130;48.472;11.934;2023-12-29T08:29:56;6.67;;;1.30;;
4232;SDS011;2130;48.472;11.934;2023-12-29T08:32:24;7.17;;;1.33;;
4232;SDS011;2130;48.472;11.934;2023-12-29T08:34:52;6.50;;;1.23;;
4232;SDS011;2130;48.472;11.934;2023-12-29T08:37:20;6.17;;;1.20;;
4232;SDS011;2130;48.472;11.934;2023-12-29T08:39:48;6.50;;;1.13;;
4232;SDS011;2130;48.472;11.934;2023-12-29T08:42:18;7.27;;;1.37;;
4232;SDS011;2130;48.472;11.934;2023-12-29T08:44:46;6.80;;;1.20;;
4232;SDS011;2130;48.472;11.934;2023-12-29T08:47:14;7.07;;;1.20;;
4232;SDS011;2130;48.472;11.934;2023-12-29T08:49:42;6.77;;;1.30;;
4232;SDS011;2130;48.472;11.934;2023-12-29T08:52:10;7.63;;;1.33;;
4232;SDS011;2130;48.472;11.934;2023-12-29T08:54:38;6.80;;;1.10;;
4232;SDS011;2130;48.472;11.934;2023-12-29T08:57:06;6.30;;;1.40;;
4232;SDS011;2130;48.472;11.934;2023-12-29T08:59:36;7.10;;;1.37;;
4232;SDS011;2130;48.472;11.934;2023-12-29T09:02:04;6.63;;;1.67;;
4232;SDS011;2130;48.472;11.934;2023-12-29T09:04:33;7.53;;;1.53;;
4232;SDS011;2130;48.472;11.934;2023-12-29T09:07:02;6.70;;;1.07;;
4232;SDS011;2130;48.472;11.934;2023-12-29T09:09:31;7.07;;;1.23;;
4232;SDS011;2130;48.472;11.934;2023-12-29T09:12:00;6.03;;;1.10;;
4232;SDS011;2130;48.472;11.934;2023-12-29T09:14:28;6.13;;;1.10;;
4232;SDS011;2130;48.472;11.934;2023-12-29T09:17:00;6.40;;;1.07;;
4232;SDS011;2130;48.472;11.934;2023-12-29T09:19:28;6.03;;;1.07;;
4232;SDS011;2130;48.472;11.934;2023-12-29T09:22:05;6.20;;;1.03;;
4232;SDS011;2130;48.472;11.934;2023-12-29T09:24:33;6.00;;;1.20;;
4232;SDS011;2130;48.472;11.934;2023-12-29T09:27:01;6.13;;;1.20;;
4232;SDS011;2130;48.472;11.934;2023-12-29T09:29:30;6.47;;;1.20;;
4232;SDS011;2130;48.472;11.934;2023-12-29T09:31:58;6.40;;;1.30;;
4232;SDS011;2130;48.472;11.934;2023-12-29T09:34:27;6.00;;;1.30;;
4232;SDS011;2130;48.472;11.934;2023-12-29T09:36:57;6.00;;;1.00;;
4232;SDS011;2130;48.472;11.934;2023-12-29T09:39:25;5.87;;;1.30;;
4232;SDS011;2130;48.472;11.934;2023-12-29T09:41:56;5.77;;;1.13;;
4232;SDS011;2130;48.472;11.934;2023-12-29T09:44:30;5.73;;;1.33;;
4232;SDS011;2130;48.472;11.934;2023-12-29T09:47:00;6.73;;;1.10;;
4232;SDS011;2130;48.472;11.934;2023-12-29T09:49:30;6.73;;;1.37;;
4232;SDS011;2130;48.472;11.934;2023-12-29T09:52:03;10.80;;;1.30;;
4232;SDS011;2130;48.472;11.934;2023-12-29T09:54:33;5.30;;;1.07;;
4232;SDS011;2130;48.472;11.934;2023-12-29T09:57:01;6.07;;;1.20;;
4232;SDS011;2130;48.472;11.934;2023-12-29T09:59:30;14.63;;;1.30;;
4232;SDS011;2130;48.472;11.934;2023-12-29T10:02:00;6.33;;;1.10;;
4232;SDS011;2130;48.472;11.934;2023-12-29T10:04:31;5.73;;;1.00;;
4232;SDS011;2130;48.472;11.934;2023-12-29T10:07:02;9.17;;;1.37;;
4232;SDS011;2130;48.472;11.934;2023-12-29T10:09:33;6.20;;;1.17;;
4232;SDS011;2130;48.472;11.934;2023-12-29T10:12:01;6.37;;;1.17;;
4232;SDS011;2130;48.472;11.934;2023-12-29T10:14:31;5.40;;;1.10;;
4232;SDS011;2130;48.472;11.934;2023-12-29T10:17:06;6.77;;;1.33;;
4232;SDS011;2130;48.472;11.934;2023-12-29T10:19:39;5.70;;;1.00;;
4232;SDS011;2130;48.472;11.934;2023-12-29T10:22:11;6.50;;;1.33;;
4232;SDS011;2130;48.472;11.934;2023-12-29T10:24:43;5.83;;;1.30;;
4232;SDS011;2130;48.472;11.934;2023-12-29T10:27:12;5.20;;;1.00;;
4232;SDS011;2130;48.472;11.934;2023-12-29T10:29:41;5.30;;;1.03;;
4232;SDS011;2130;48.472;11.934;2023-12-29T10:32:09;5.77;;;1.13;;
4232;SDS011;2130;48.472;11.934;2023-12-29T10:34:39;6.20;;;1.00;;
4232;SDS011;2130;48.472;11.934;2023-12-29T10:37:08;5.17;;;1.10;;
4232;SDS011;2130;48.472;11.934;2023-12-29T10:39:42;5.27;;;0.97;;
4232;SDS011;2130;48.472;11.934;2023-12-29T10:42:22;5.93;;;0.93;;
4232;SDS011;2130;48.472;11.934;2023-12-29T10:45:03;5.47;;;1.10;;
4232;SDS011;2130;48.472;11.934;2023-12-29T10:47:32;5.93;;;1.10;;
4232;SDS011;2130;48.472;11.934;2023-12-29T10:50:03;5.67;;;1.13;;
4232;SDS011;2130;48.472;11.934;2023-12-29T10:52:32;6.43;;;1.20;;
4232;SDS011;2130;48.472;11.934;2023-12-29T10:55:04;5.17;;;1.10;;
4232;SDS011;2130;48.472;11.934;2023-12-29T10:57:32;5.53;;;1.10;;
4232;SDS011;2130;48.472;11.934;2023-12-29T11:00:01;7.97;;;1.10;;
4232;SDS011;2130;48.472;11.934;2023-12-29T11:02:30;4.97;;;0.90;;
4232;SDS011;2130;48.472;11.934;2023-12-29T11:05:04;5.07;;;0.97;;
4232;SDS011;2130;48.472;11.934;2023-12-29T11:07:36;5.37;;;0.83;;
4232;SDS011;2130;48.472;11.934;2023-12-29T11:10:06;5.30;;;0.97;;
4232;SDS011;2130;48.472;11.934;2023-12-29T11:12:36;5.17;;;1.10;;
4232;SDS011;2130;48.472;11.934;2023-12-29T11:15:05;5.73;;;1.33;;
4232;SDS011;2130;48.472;11.934;2023-12-29T11:17:35;5.10;;;1.10;;
4232;SDS011;2130;48.472;11.934;2023-12-29T11:20:05;6.10;;;1.07;;
4232;SDS011;2130;48.472;11.934;2023-12-29T11:22:33;5.30;;;0.90;;
4232;SDS011;2130;48.472;11.934;2023-12-29T11:25:01;4.80;;;0.97;;
4232;SDS011;2130;48.472;11.934;2023-12-29T11:27:30;5.20;;;0.80;;
4232;SDS011;2130;48.472;11.934;2023-12-29T11:30:00;4.87;;;0.87;;
4232;SDS011;2130;48.472;11.934;2023-12-29T11:32:34;4.93;;;0.80;;
4232;SDS011;2130;48.472;11.934;2023-12-29T11:35:12;5.60;;;1.00;;
4232;SDS011;2130;48.472;11.934;2023-12-29T11:37:49;4.90;;;1.00;;
4232;SDS011;2130;48.472;11.934;2023-12-29T11:40:28;5.67;;;1.20;;
4232;SDS011;2130;48.472;11.934;2023-12-29T11:42:59;4.80;;;0.93;;
4232;SDS011;2130;48.472;11.934;2023-12-29T11:45:31;4.63;;;0.90;;
4232;SDS011;2130;48.472;11.934;2023-12-29T11:48:02;5.13;;;1.03;;
4232;SDS011;2130;48.472;11.934;2023-12-29T11:50:33;4.93;;;0.90;;
4232;SDS011;2130;48.472;11.934;2023-12-29T11:53:03;4.97;;;1.00;;
4232;SDS011;2130;48.472;11.934;2023-12-29T11:55:33;5.67;;;0.97;;
4232;SDS011;2130;48.472;11.934;2023-12-29T12:00:51;5.27;;;1.00;;
4232;SDS011;2130;48.472;11.934;2023-12-29T12:03:23;4.33;;;0.80;;
4232;SDS011;2130;48.472;11.934;2023-12-29T12:05:54;4.80;;;1.07;;
4232;SDS011;2130;48.472;11.934;2023-12-29T12:08:28;5.70;;;1.10;;
4232;SDS011;2130;48.472;11.934;2023-12-29T12:10:58;4.53;;;0.80;;
4232;SDS011;2130;48.472;11.934;2023-12-29T12:14:04;6.37;;;0.90;;
4232;SDS011;2130;48.472;11.934;2023-12-29T12:16:47;5.60;;;1.00;;
4232;SDS011;2130;48.472;11.934;2023-12-29T12:19:17;5.40;;;0.90;;
4232;SDS011;2130;48.472;11.934;2023-12-29T12:21:48;5.37;;;0.97;;
4232;SDS011;2130;48.472;11.934;2023-12-29T12:24:18;4.13;;;1.00;;
4232;SDS011;2130;48.472;11.934;2023-12-29T12:26:47;5.60;;;0.97;;
4232;SDS011;2130;48.472;11.934;2023-12-29T12:29:16;9.53;;;1.13;;
4232;SDS011;2130;48.472;11.934;2023-12-29T12:31:52;5.00;;;0.90;;
4232;SDS011;2130;48.472;11.934;2023-12-29T12:34:21;4.47;;;0.80;;
4232;SDS011;2130;48.472;11.934;2023-12-29T12:36:52;5.13;;;1.00;;
4232;SDS011;2130;48.472;11.934;2023-12-29T12:39:23;5.27;;;1.03;;
4232;SDS011;2130;48.472;11.934;2023-12-29T12:41:51;5.83;;;1.10;;
4232;SDS011;2130;48.472;11.934;2023-12-29T12:44:19;5.97;;;1.00;;
4232;SDS011;2130;48.472;11.934;2023-12-29T12:46:49;4.93;;;1.10;;
4232;SDS011;2130;48.472;11.934;2023-12-29T12:49:19;4.97;;;0.90;;
4232;SDS011;2130;48.472;11.934;2023-12-29T12:51:47;6.30;;;1.30;;
4232;SDS011;2130;48.472;11.934;2023-12-29T12:54:18;5.07;;;1.07;;
4232;SDS011;2130;48.472;11.934;2023-12-29T12:56:46;5.80;;;1.07;;
4232;SDS011;2130;48.472;11.934;2023-12-29T12:59:15;4.80;;;1.20;;
4232;SDS011;2130;48.472;11.934;2023-12-29T13:01:43;4.43;;;0.90;;
4232;SDS011;2130;48.472;11.934;2023-12-29T13:04:13;5.83;;;1.13;;
4232;SDS011;2130;48.472;11.934;2023-12-29T13:06:41;4.80;;;1.23;;
4232;SDS011;2130;48.472;11.934;2023-12-29T13:09:17;6.17;;;1.20;;
4232;SDS011;2130;48.472;11.934;2023-12-29T13:11:46;5.03;;;0.87;;
4232;SDS011;2130;48.472;11.934;2023-12-29T13:14:19;5.33;;;1.10;;
4232;SDS011;2130;48.472;11.934;2023-12-29T13:16:48;4.43;;;0.90;;
4232;SDS011;2130;48.472;11.934;2023-12-29T13:19:18;5.20;;;0.90;;
4232;SDS011;2130;48.472;11.934;2023-12-29T13:21:47;4.43;;;1.07;;
4232;SDS011;2130;48.472;11.934;2023-12-29T13:24:15;4.70;;;1.00;;
4232;SDS011;2130;48.472;11.934;2023-12-29T13:26:45;4.67;;;1.03;;
4232;SDS011;2130;48.472;11.934;2023-12-29T13:29:18;5.90;;;1.07;;
4232;SDS011;2130;48.472;11.934;2023-12-29T13:31:47;4.57;;;0.90;;
4232;SDS011;2130;48.472;11.934;2023-12-29T13:34:17;6.07;;;1.10;;
4232;SDS011;2130;48.472;11.934;2023-12-29T13:36:50;5.07;;;0.97;;
4232;SDS011;2130;48.472;11.934;2023-12-29T13:39:21;4.40;;;0.80;;
4232;SDS011;2130;48.472;11.934;2023-12-29T13:41:54;5.80;;;0.97;;
4232;SDS011;2130;48.472;11.934;2023-12-29T13:44:23;5.37;;;1.20;;
4232;SDS011;2130;48.472;11.934;2023-12-29T13:46:53;4.53;;;0.90;;
4232;SDS011;2130;48.472;11.934;2023-12-29T13:49:21;4.40;;;1.00;;
4232;SDS011;2130;48.472;11.934;2023-12-29T13:51:49;5.10;;;1.10;;
4232;SDS011;2130;48.472;11.934;2023-12-29T13:54:18;4.90;;;1.10;;
4232;SDS011;2130;48.472;11.934;2023-12-29T13:56:53;4.70;;;0.90;;
4232;SDS011;2130;48.472;11.934;2023-12-29T13:59:28;5.60;;;0.93;;
4232;SDS011;2130;48.472;11.934;2023-12-29T14:01:58;4.70;;;0.87;;
4232;SDS011;2130;48.472;11.934;2023-12-29T14:04:26;4.70;;;0.90;;
4232;SDS011;2130;48.472;11.934;2023-12-29T14:06:59;4.90;;;1.00;;
4232;SDS011;2130;48.472;11.934;2023-12-29T14:09:29;6.40;;;1.00;;
4232;SDS011;2130;48.472;11.934;2023-12-29T14:11:58;4.53;;;0.90;;
4232;SDS011;2130;48.472;11.934;2023-12-29T14:14:27;5.10;;;1.07;;
4232;SDS011;2130;48.472;11.934;2023-12-29T14:16:55;5.27;;;1.10;;
4232;SDS011;2130;48.472;11.934;2023-12-29T14:19:23;5.43;;;1.13;;
4232;SDS011;2130;48.472;11.934;2023-12-29T14:21:52;5.47;;;0.90;;
4232;SDS011;2130;48.472;11.934;2023-12-29T14:24:21;5.00;;;1.03;;
4232;SDS011;2130;48.472;11.934;2023-12-29T14:26:55;4.80;;;0.90;;
4232;SDS011;2130;48.472;11.934;2023-12-29T14:29:27;4.90;;;1.00;;
4232;SDS011;2130;48.472;11.934;2023-12-29T14:31:55;5.43;;;1.13;;
4232;SDS011;2130;48.472;11.934;2023-12-29T14:34:23;5.13;;;1.10;;
4232;SDS011;2130;48.472;11.934;2023-12-29T14:36:51;4.53;;;1.07;;
4232;SDS011;2130;48.472;11.934;2023-12-29T14:39:20;5.07;;;1.00;;
4232;SDS011;2130;48.472;11.934;2023-12-29T14:41:47;5.40;;;1.10;;
4232;SDS011;2130;48.472;11.934;2023-12-29T14:44:16;7.20;;;1.83;;
4232;SDS011;2130;48.472;11.934;2023-12-29T14:46:45;5.53;;;1.00;;
4232;SDS011;2130;48.472;11.934;2023-12-29T14:49:13;4.40;;;0.80;;
4232;SDS011;2130;48.472;11.934;2023-12-29T14:51:41;5.43;;;1.00;;
4232;SDS011;2130;48.472;11.934;2023-12-29T14:54:10;5.57;;;1.20;;
4232;SDS011;2130;48.472;11.934;2023-12-29T14:56:38;4.90;;;0.90;;
4232;SDS011;2130;48.472;11.934;2023-12-29T14:59:06;5.70;;;1.20;;
4232;SDS011;2130;48.472;11.934;2023-12-29T15:01:38;5.60;;;1.20;;
4232;SDS011;2130;48.472;11.934;2023-12-29T15:04:07;5.53;;;1.00;;
4232;SDS011;2130;48.472;11.934;2023-12-29T15:06:38;4.70;;;0.93;;
4232;SDS011;2130;48.472;11.934;2023-12-29T15:09:06;5.10;;;1.00;;
4232;SDS011;2130;48.472;11.934;2023-12-29T15:11:37;5.50;;;1.10;;
4232;SDS011;2130;48.472;11.934;2023-12-29T15:14:05;5.20;;;1.20;;
4232;SDS011;2130;48.472;11.934;2023-12-29T15:16:34;4.90;;;1.00;;